Sedona, AZ

5:16 AM MST on December 13, 2017 (GMT -0700)
Sedona

Weather History for KSEZ - March, 2014

Change the Weather History Date:

Friday, March 7, 2014

  Actual Average Record
Temperature  
Mean Temperature 57 °F -  
Max Temperature 68 °F 63 °F 68 °F (2013)
Min Temperature 46 °F 34 °F 32 °F (2012)
Degree Days  
Heating Degree Days 8    
Growing Degree Days 7 (Base 50)    
Moisture  
Dew Point 25 °F    
Average Humidity 33    
Maximum Humidity 50    
Minimum Humidity 15    
Precipitation  
Precipitation 0.00 in - - ()
Sea Level Pressure  
Sea Level Pressure 29.97 in    
Wind  
Wind Speed 6 mph (NE)    
Max Wind Speed 18 mph    
Max Gust Speed 25 mph    
Visibility 10 miles    
Events Thunderstorm    
Averages and records for this station are not official NWS values.
T = Trace of Precipitation, MM = Missing Value Source: NWS Daily Summary

Daily Weather History Graph

Daily Weather History Graph

Search for Another Location

Airport or City:

Trip Planner

Search our weather history database for the weather conditions in past years. The results will help you decide how hot, cold, wet, or windy it might be!

Date:

Astronomy

Mar. 07, 2014 Rise Set
Actual Time 6:48 AM MST 6:28 PM MST
Civil Twilight 6:23 AM MST 6:53 PM MST
Nautical Twilight 5:54 AM MST 7:22 PM MST
Astronomical Twilight 5:24 AM MST 7:52 PM MST
Moon 10:58 AM MST (3/7) 12:22 AM MST (3/7)
Length of Visible Light 12h 30m
Length of Day
11h 39m
Waxing Crescent, 42% of the Moon is Illuminated
Mar 7
Waxing Crescent
Mar 8
First Quarter
Mar 16
Full
Mar 23
Last Quarter
Mar 30
New

Hourly Weather History & Observations

Time (MST) Temp. Windchill Dew Point Humidity Pressure Visibility Wind Dir Wind Speed Gust Speed Precip Events Conditions
12:15 AM 51.8 °F - 28.4 °F 41% 30.00 in 10.0 mi NE 4.6 mph - N/A   Clear
12:35 AM 50.0 °F - 28.4 °F 43% 30.00 in 10.0 mi NE 3.5 mph - N/A   Clear
12:55 AM 50.0 °F - 28.4 °F 43% 29.99 in 10.0 mi NE 4.6 mph - N/A   Clear
1:15 AM 50.0 °F - 28.4 °F 43% 29.99 in 10.0 mi NE 3.5 mph - N/A   Clear
1:35 AM 50.0 °F - 28.4 °F 43% 29.98 in 10.0 mi Calm Calm - N/A   Clear
1:55 AM 50.0 °F - 28.4 °F 43% 29.99 in 10.0 mi NE 4.6 mph - N/A   Clear
2:15 AM 50.0 °F - 28.4 °F 43% 29.98 in 10.0 mi NE 5.8 mph - N/A   Clear
2:35 AM 48.2 °F - 28.4 °F 46% 29.97 in 10.0 mi NNE 3.5 mph - N/A   Clear
2:55 AM 50.0 °F - 28.4 °F 43% 29.96 in 10.0 mi NNE 4.6 mph - N/A   Clear
3:15 AM 50.0 °F - 28.4 °F 43% 29.95 in 10.0 mi Calm Calm - N/A   Clear
3:35 AM 48.2 °F - 28.4 °F 46% 29.95 in 10.0 mi NNE 5.8 mph - N/A   Clear
3:55 AM 48.2 °F - 28.4 °F 46% 29.95 in 10.0 mi Calm Calm - N/A   Clear
4:15 AM 48.2 °F - 28.4 °F 46% 29.94 in 10.0 mi NE 4.6 mph - N/A   Clear
4:35 AM 48.2 °F - 28.4 °F 46% 29.94 in 10.0 mi NNE 4.6 mph - N/A   Clear
4:55 AM 50.0 °F - 28.4 °F 43% 29.95 in 10.0 mi Calm Calm - N/A   Clear
5:15 AM 50.0 °F - 28.4 °F 43% 29.95 in 10.0 mi NNE 3.5 mph - N/A   Clear
5:35 AM 50.0 °F - 28.4 °F 43% 29.95 in 10.0 mi Calm Calm - N/A   Clear
5:55 AM 50.0 °F - 28.4 °F 43% 29.96 in 10.0 mi Calm Calm - N/A   Clear
6:15 AM 50.0 °F - 28.4 °F 43% 29.95 in 10.0 mi Calm Calm - N/A   Clear
6:35 AM 50.0 °F - 28.4 °F 43% 29.95 in 10.0 mi NE 3.5 mph - N/A   Clear
6:55 AM 46.4 °F - 28.4 °F 50% 29.96 in 10.0 mi Calm Calm - N/A   Clear
7:15 AM 46.4 °F 44.3 °F 28.4 °F 50% 29.97 in 10.0 mi NE 4.6 mph - N/A   Clear
7:35 AM 50.0 °F - 30.2 °F 47% 29.97 in 10.0 mi ENE 3.5 mph - N/A   Clear
7:55 AM 50.0 °F - 30.2 °F 47% 29.98 in 10.0 mi East 4.6 mph - N/A   Clear
8:10 AM 51.8 °F - 30.2 °F 44% 29.98 in 10.0 mi East 4.6 mph - N/A   Clear
8:35 AM 53.6 °F - 30.2 °F 41% 29.99 in 10.0 mi NNE 3.5 mph - N/A   Clear
8:55 AM 55.4 °F - 32.0 °F 41% 30.00 in 10.0 mi Calm Calm - N/A   Scattered Clouds
9:15 AM 55.4 °F - 30.2 °F 38% 30.00 in 10.0 mi Calm Calm - N/A   Scattered Clouds
9:35 AM 59.0 °F - 32.0 °F 36% 29.99 in 10.0 mi SE 6.9 mph - N/A   Clear
9:55 AM 59.0 °F - 30.2 °F 34% 29.99 in 10.0 mi South 3.5 mph - N/A   Clear
10:15 AM 59.0 °F - 32.0 °F 36% 29.99 in 10.0 mi South 5.8 mph - N/A   Clear
10:35 AM 60.8 °F - 32.0 °F 34% 29.99 in 10.0 mi South 3.5 mph - N/A   Clear
10:55 AM 62.6 °F - 32.0 °F 32% 29.99 in 10.0 mi South 5.8 mph - N/A   Clear
11:15 AM 62.6 °F - 32.0 °F 32% 29.99 in 10.0 mi South 5.8 mph - N/A   Clear
11:35 AM 64.4 °F - 32.0 °F 30% 29.99 in 10.0 mi South 8.1 mph - N/A   Clear
11:55 AM 64.4 °F - 32.0 °F 30% 29.98 in 10.0 mi South 5.8 mph - N/A   Clear
12:15 PM 64.4 °F - 33.8 °F 32% 29.97 in 10.0 mi SSE 9.2 mph - N/A Thunderstorm Clear
12:35 PM 64.4 °F - 32.0 °F 30% 29.96 in 10.0 mi SSW 6.9 mph - N/A   Clear
12:50 PM 62.6 °F - 32.0 °F 32% 29.96 in 10.0 mi SW 5.8 mph - N/A   Clear
1:15 PM 64.4 °F - 32.0 °F 30% 29.95 in 10.0 mi SSW 5.8 mph - N/A   Clear
1:35 PM 62.6 °F - 32.0 °F 32% 29.94 in 10.0 mi South 8.1 mph - N/A Thunderstorm Clear
1:55 PM 68.0 °F - 32.0 °F 26% 29.92 in 10.0 mi South 5.8 mph - N/A   Clear
2:15 PM 68.0 °F - 32.0 °F 26% 29.92 in 10.0 mi South 5.8 mph - N/A   Scattered Clouds
2:35 PM 68.0 °F - 26.6 °F 21% 29.91 in 10.0 mi West 12.7 mph 17.3 mph N/A   Scattered Clouds
2:55 PM 68.0 °F - 19.4 °F 16% 29.91 in 10.0 mi West 9.2 mph 19.6 mph N/A   Clear
3:15 PM 68.0 °F - 17.6 °F 15% 29.90 in 10.0 mi WSW 12.7 mph 21.9 mph N/A   Clear
3:35 PM 66.2 °F - 19.4 °F 17% 29.90 in 10.0 mi WSW 13.8 mph 25.3 mph N/A   Clear
3:55 PM 68.0 °F - 17.6 °F 15% 29.90 in 10.0 mi West 18.4 mph 24.2 mph N/A   Clear
4:15 PM 66.2 °F - 19.4 °F 17% 29.91 in 10.0 mi WNW 13.8 mph 23.0 mph N/A   Clear
4:35 PM 66.2 °F - 17.6 °F 15% 29.91 in 10.0 mi WNW 15.0 mph 19.6 mph N/A   Clear
4:55 PM 64.4 °F - 17.6 °F 16% 29.91 in 10.0 mi NW 10.4 mph 19.6 mph N/A   Clear
5:15 PM 64.4 °F - 15.8 °F 15% 29.92 in 10.0 mi NNW 17.3 mph - N/A   Scattered Clouds
5:35 PM 62.6 °F - 14.0 °F 15% 29.93 in 10.0 mi NNW 13.8 mph 17.3 mph N/A   Clear
5:55 PM 62.6 °F - 15.8 °F 16% 29.93 in 10.0 mi North 10.4 mph - N/A   Clear
6:15 PM 60.8 °F - 14.0 °F 16% 29.93 in 10.0 mi North 15.0 mph - N/A   Clear
6:35 PM 59.0 °F - 14.0 °F 17% 29.94 in 10.0 mi North 12.7 mph - N/A   Clear
6:55 PM 59.0 °F - 15.8 °F 19% 29.94 in 10.0 mi North 12.7 mph - N/A   Clear
7:15 PM 57.2 °F - 17.6 °F 21% 29.95 in 10.0 mi NNE 9.2 mph - N/A   Clear
7:35 PM 55.4 °F - 19.4 °F 25% 29.95 in 10.0 mi NNE 11.5 mph 17.3 mph N/A   Clear
7:55 PM 55.4 °F - 17.6 °F 23% 29.96 in 10.0 mi NE 9.2 mph - N/A   Clear
8:15 PM 55.4 °F - 17.6 °F 23% 29.97 in 10.0 mi NE 9.2 mph 17.3 mph N/A   Clear
8:35 PM 53.6 °F - 19.4 °F 26% 29.99 in 10.0 mi ENE 10.4 mph - N/A   Clear
8:55 PM 53.6 °F - 19.4 °F 26% 30.00 in 10.0 mi NNE 12.7 mph - N/A   Clear
9:15 PM 51.8 °F - 19.4 °F 28% 30.00 in 10.0 mi ENE 8.1 mph - N/A   Clear
9:35 PM 51.8 °F - 21.2 °F 30% 30.00 in 10.0 mi NE 13.8 mph - N/A   Clear
9:55 PM 51.8 °F - 21.2 °F 30% 30.02 in 10.0 mi NE 10.4 mph - N/A   Clear
10:15 PM 51.8 °F - 21.2 °F 30% 30.02 in 10.0 mi NE 9.2 mph - N/A   Clear
10:35 PM 50.0 °F - 21.2 °F 32% 30.02 in 10.0 mi NNE 8.1 mph - N/A   Clear
10:55 PM 51.8 °F - 21.2 °F 30% 30.02 in 10.0 mi NNE 5.8 mph - N/A   Clear
11:15 PM 50.0 °F - 21.2 °F 32% 30.03 in 10.0 mi NNE 8.1 mph - N/A   Clear
11:35 PM 50.0 °F - 21.2 °F 32% 30.03 in 10.0 mi NE 9.2 mph - N/A   Clear
11:55 PM 50.0 °F - 21.2 °F 32% 30.03 in 10.0 mi NE 11.5 mph - N/A   Clear